Latest Weather Observations for Point Wilson

IDV60901

Issued at 12:11 am EST Thursday 3 September 2026 (issued every 10 minutes, with the page automatically refreshed every 10 minutes)

About weather observations | Map of Melbourne area stations | Latest observations for Melbourne area | Other Formats
Station Details ID: 087166 Name: POINT WILSON Lat: -38.10 Lon: 144.54 Height: 18.0 m
Data from the previous 72 hours. | See also: Recent months at Point Wilson
Date/Time
EST
Temp
°C
App
Temp
°C
Dew
Point
°C
Rel
Hum
%
Delta-T
°C
Wind Press
QNH
hPa
Press
MSL
hPa
Rain since
9am
mm
Dir  Spd
km/h
Gust
km/h
Spd
kts
Gust
kts
03/12:00am - - - - - NNW 15 24 8 13 - - -
 
Date/Time
EST
Temp
°C
App
Temp
°C
Dew
Point
°C
Rel
Hum
%
Delta-T
°C
Wind Press
QNH
hPa
Press
MSL
hPa
Rain since
9am
mm
Dir  Spd
km/h
Gust
km/h
Spd
kts
Gust
kts
02/11:30pm - - - - - NNW 13 22 7 12 - - -
02/11:00pm - - - - - NNW 13 22 7 12 - - -
02/10:30pm - - - - - WNW 17 20 9 11 - - -
02/10:00pm - - - - - WNW 28 35 15 19 - - -
02/09:30pm - - - - - NW 19 33 10 18 - - -
02/09:00pm - - - - - NW 13 26 7 14 - - -
02/08:30pm - - - - - NW 17 24 9 13 - - -
02/08:00pm - - - - - NNW 6 17 3 9 - - -
02/07:30pm - - - - - WNW 19 28 10 15 - - -
02/07:00pm - - - - - WSW 20 24 11 13 - - -
02/06:30pm - - - - - WSW 17 20 9 11 - - -
02/06:00pm - - - - - WSW 19 24 10 13 - - -
02/05:30pm - - - - - SW 19 22 10 12 - - -
02/05:00pm - - - - - WSW 19 22 10 12 - - -
02/04:30pm - - - - - WSW 19 24 10 13 - - -
02/04:00pm - - - - - WSW 19 24 10 13 - - -
02/03:30pm - - - - - WSW 24 33 13 18 - - -
02/03:00pm - - - - - WSW 26 32 14 17 - - -
02/02:30pm - - - - - WSW 22 32 12 17 - - -
02/02:00pm - - - - - W 24 33 13 18 - - -
02/01:30pm - - - - - W 26 33 14 18 - - -
02/01:00pm - - - - - W 26 35 14 19 - - -
02/12:30pm - - - - - W 30 35 16 19 - - -
02/12:00pm - - - - - WNW 30 39 16 21 - - -
02/11:30am - - - - - NW 24 37 13 20 - - -
02/11:00am - - - - - NW 28 39 15 21 - - -
02/10:30am - - - - - WNW 24 33 13 18 - - -
02/10:00am - - - - - W 20 28 11 15 - - -
02/09:30am - - - - - W 20 26 11 14 - - -
02/09:00am - - - - - WNW 20 26 11 14 - - -
02/08:30am - - - - - WNW 17 20 9 11 - - -
02/08:00am - - - - - WNW 13 17 7 9 - - -
02/07:30am - - - - - WNW 13 17 7 9 - - -
02/07:00am - - - - - WNW 15 19 8 10 - - -
02/06:30am - - - - - WNW 15 19 8 10 - - -
02/06:00am - - - - - WNW 17 24 9 13 - - -
02/05:30am - - - - - W 22 28 12 15 - - -
02/05:00am - - - - - W 24 33 13 18 - - -
02/04:30am - - - - - WSW 24 28 13 15 - - -
02/04:00am - - - - - WSW 30 35 16 19 - - -
02/03:30am - - - - - W 24 28 13 15 - - -
02/03:00am - - - - - SW 22 28 12 15 - - -
02/02:30am - - - - - SW 26 32 14 17 - - -
02/02:20am - - - - - WSW 24 37 13 20 - - -
02/02:00am - - - - - WNW 11 17 6 9 - - -
02/01:30am - - - - - WNW 13 17 7 9 - - -
02/01:00am - - - - - WNW 17 22 9 12 - - -
02/12:30am - - - - - NW 28 37 15 20 - - -
02/12:00am - - - - - WNW 22 32 12 17 - - -
 
Date/Time
EST
Temp
°C
App
Temp
°C
Dew
Point
°C
Rel
Hum
%
Delta-T
°C
Wind Press
QNH
hPa
Press
MSL
hPa
Rain since
9am
mm
Dir  Spd
km/h
Gust
km/h
Spd
kts
Gust
kts
01/11:30pm - - - - - WNW 30 41 16 22 - - -
01/11:00pm - - - - - WNW 19 28 10 15 - - -
01/10:30pm - - - - - WNW 32 46 17 25 - - -
01/10:22pm - - - - - NW 35 46 19 25 - - -
01/10:12pm - - - - - NW 28 44 15 24 - - -
01/10:00pm - - - - - NW 20 26 11 14 - - -
01/09:30pm - - - - - NNW 11 26 6 14 - - -
01/09:00pm - - - - - NNW 13 19 7 10 - - -
01/08:30pm - - - - - NNW 11 22 6 12 - - -
01/08:00pm - - - - - NNW 17 33 9 18 - - -
01/07:30pm - - - - - NNW 19 26 10 14 - - -
01/07:00pm - - - - - NNW 24 37 13 20 - - -
01/06:30pm - - - - - NNW 17 30 9 16 - - -
01/06:00pm - - - - - NNW 19 30 10 16 - - -
01/05:30pm - - - - - NNW 19 30 10 16 - - -
01/05:00pm - - - - - NNW 19 32 10 17 - - -
01/04:30pm - - - - - NNW 22 37 12 20 - - -
01/04:00pm - - - - - NNW 24 41 13 22 - - -
01/03:30pm - - - - - NNW 15 24 8 13 - - -
01/03:00pm - - - - - NNW 19 33 10 18 - - -
01/02:30pm - - - - - NNW 26 52 14 28 - - -
01/02:07pm - - - - - NNW 26 44 14 24 - - -
01/02:00pm - - - - - NNW 26 48 14 26 - - -
01/01:30pm - - - - - NNW 30 50 16 27 - - -
01/01:00pm - - - - - NW 28 54 15 29 - - -
01/12:56pm - - - - - NW 28 54 15 29 - - -
01/12:55pm - - - - - NNW 26 54 14 29 - - -
01/12:30pm - - - - - NW 26 48 14 26 - - -
01/12:00pm - - - - - NW 33 52 18 28 - - -
01/11:50am - - - - - NNW 22 54 12 29 - - -
01/11:48am - - - - - NNW 19 46 10 25 - - -
01/11:30am - - - - - NNW 19 35 10 19 - - -
01/11:16am - - - - - NNW 26 43 14 23 - - -
01/11:00am - - - - - NNW 33 54 18 29 - - -
01/10:40am - - - - - NNW 28 48 15 26 - - -
01/10:30am - - - - - NNW 19 33 10 18 - - -
01/10:00am - - - - - N 9 22 5 12 - - -
01/09:30am - - - - - N 9 24 5 13 - - -
01/09:00am - - - - - N 7 24 4 13 - - -
01/08:30am - - - - - NNW 6 17 3 9 - - -
01/08:00am - - - - - N 4 13 2 7 - - -
01/07:30am - - - - - N 4 13 2 7 - - -
01/07:00am - - - - - N 4 15 2 8 - - -
01/06:30am - - - - - N 4 13 2 7 - - -
01/06:00am - - - - - NNE 4 15 2 8 - - -
01/05:30am - - - - - NNW 6 17 3 9 - - -
01/05:00am - - - - - NNW 6 17 3 9 - - -
01/04:30am - - - - - N 4 17 2 9 - - -
01/04:00am - - - - - N 6 17 3 9 - - -
01/03:30am - - - - - NNW 6 11 3 6 - - -
01/03:00am - - - - - N 4 11 2 6 - - -
01/02:30am - - - - - N 2 9 1 5 - - -
01/02:00am - - - - - N 4 6 2 3 - - -
01/01:30am - - - - - N 2 7 1 4 - - -
01/01:00am - - - - - N 2 9 1 5 - - -
01/12:30am - - - - - NNW 4 13 2 7 - - -
01/12:00am - - - - - N 4 9 2 5 - - -
 
Date/Time
EST
Temp
°C
App
Temp
°C
Dew
Point
°C
Rel
Hum
%
Delta-T
°C
Wind Press
QNH
hPa
Press
MSL
hPa
Rain since
9am
mm
Dir  Spd
km/h
Gust
km/h
Spd
kts
Gust
kts
31/11:30pm - - - - - N 4 11 2 6 - - -
31/11:00pm - - - - - N 4 9 2 5 - - -
31/10:30pm - - - - - N 2 9 1 5 - - -
31/10:00pm - - - - - NNE 2 7 1 4 - - -
31/09:30pm - - - - - NNW 2 7 1 4 - - -
31/09:00pm - - - - - NW 2 7 1 4 - - -
31/08:30pm - - - - - NNE 2 6 1 3 - - -
31/08:00pm - - - - - ENE 6 7 3 4 - - -
31/07:30pm - - - - - E 6 9 3 5 - - -
31/07:00pm - - - - - ENE 13 15 7 8 - - -
31/06:30pm - - - - - NE 15 17 8 9 - - -
31/06:00pm - - - - - NE 15 17 8 9 - - -
31/05:30pm - - - - - NE 13 17 7 9 - - -
31/05:00pm - - - - - NNE 11 15 6 8 - - -
31/04:30pm - - - - - NE 17 19 9 10 - - -
31/04:00pm - - - - - NE 13 17 7 9 - - -
31/03:30pm - - - - - ENE 7 9 4 5 - - -
31/03:00pm - - - - - NE 7 9 4 5 - - -
31/02:30pm - - - - - E 6 9 3 5 - - -
31/02:00pm - - - - - E 6 9 3 5 - - -
31/01:30pm - - - - - E 6 9 3 5 - - -
31/01:00pm - - - - - ESE 6 7 3 4 - - -
31/12:30pm - - - - - ESE 4 6 2 3 - - -
31/12:00pm - - - - - SSW 6 9 3 5 - - -
31/11:30am - - - - - SW 6 11 3 6 - - -
31/11:00am - - - - - W 9 13 5 7 - - -
31/10:30am - - - - - WNW 6 13 3 7 - - -
31/10:00am - - - - - SW 9 13 5 7 - - -
31/09:30am - - - - - W 11 19 6 10 - - -
31/09:00am - - - - - W 9 13 5 7 - - -
31/08:30am - - - - - W 11 17 6 9 - - -
31/08:00am - - - - - W 11 22 6 12 - - -
31/07:30am - - - - - WNW 15 20 8 11 - - -
31/07:00am - - - - - NW 15 19 8 10 - - -
31/06:30am - - - - - WNW 19 22 10 12 - - -
31/06:00am - - - - - WNW 19 24 10 13 - - -
31/05:30am - - - - - WNW 17 24 9 13 - - -
31/05:00am - - - - - WNW 15 20 8 11 - - -
31/04:30am - - - - - WNW 15 20 8 11 - - -
31/04:00am - - - - - W 19 20 10 11 - - -
31/03:30am - - - - - WSW 17 20 9 11 - - -
31/03:00am - - - - - WSW 17 20 9 11 - - -
31/02:30am - - - - - WSW 17 20 9 11 - - -
31/02:00am - - - - - WSW 19 22 10 12 - - -
31/01:30am - - - - - WNW 15 22 8 12 - - -
31/01:00am - - - - - WNW 17 20 9 11 - - -
31/12:30am - - - - - NW 13 19 7 10 - - -

Latest Capital City Observations: Canberra | Sydney | Melbourne | Brisbane | Adelaide | Perth | Hobart | Darwin

Other formats

Comma delimited format used in spreadsheet applications
http://www.bom.gov.au/fwo/IDV60901/IDV60901.94847.axf

JavaScript Object Notation format (JSON) in row-major order
http://www.bom.gov.au/fwo/IDV60901/IDV60901.94847.json

Data quality

Most of these data are generated automatically and are frequently updated. Quality checks on data are not normally performed. It is possible for incorrect values to appear. Refer to information at About Latest Weather Observations and please check the disclaimer before using these data.